
<gpx xmlns="http://www.topografix.com/GPX/1/1" xmlns:gpxx="http://www.garmin.com/xmlschemas/GpxExtensions/v3" xmlns:xsi="http://www.w3.org/2001/XMLSchema-instance" version="1.1" creator="Adze - http://kobotsw.com/apps/adze" xsi:schemaLocation="http://www.topografix.com/GPX/1/1 http://www.topografix.com/GPX/1/1/gpx.xsd http://www.garmin.com/xmlschemas/GpxExtensions/v3 http://www.garmin.com/xmlschemas/GpxExtensionsv3.xsd">
    <metadata>
        <name>Untitled Document</name>
        <link href="http://www.garmin.com"></link>
        <time>2018-02-26T02:53:47.478Z</time>
    </metadata>
    <wpt lon="101.066511" lat="13.029568">
        <time>2016-06-10T06:34:18Z</time>
        <name>Phanhin Regent</name>
        <sym>Lodging</sym>
        <extensions>
            <gpxx:WaypointExtension xmlns:gpxx="http://www.garmin.com/xmlschemas/GpxExtensions/v3">
                <gpxx:DisplayMode>SymbolAndName</gpxx:DisplayMode>
            </gpxx:WaypointExtension>
        </extensions>
    </wpt>
    <wpt lon="101.020898" lat="13.034641">
        <name>Mobile water stop</name>
    </wpt>
    <trk>
        <name>Sunday</name>
        <extensions>
            <gpxx:TrackExtension xmlns:gpxx="http://www.garmin.com/xmlschemas/GpxExtensions/v3">
                <gpxx:DisplayColor>Green</gpxx:DisplayColor>
            </gpxx:TrackExtension>
        </extensions>
        <trkseg>
            <trkpt lon="101.066500" lat="13.029956">
                <ele>148.180000</ele>
                <time>2016-05-29T01:05:00Z</time>
            </trkpt>
            <trkpt lon="101.066905" lat="13.029909">
                <ele>147.220000</ele>
                <time>2016-05-29T01:05:14Z</time>
            </trkpt>
            <trkpt lon="101.066890" lat="13.029107">
                <ele>145.780000</ele>
                <time>2016-05-29T01:05:35Z</time>
            </trkpt>
            <trkpt lon="101.066916" lat="13.028887">
                <ele>144.340000</ele>
                <time>2016-05-29T01:05:41Z</time>
            </trkpt>
            <trkpt lon="101.066534" lat="13.027937">
                <ele>142.410000</ele>
                <time>2016-05-29T01:06:00Z</time>
            </trkpt>
            <trkpt lon="101.065870" lat="13.027395">
                <ele>146.260000</ele>
                <time>2016-05-29T01:06:22Z</time>
            </trkpt>
            <trkpt lon="101.064879" lat="13.027902">
                <ele>142.890000</ele>
                <time>2016-05-29T01:06:47Z</time>
            </trkpt>
            <trkpt lon="101.062008" lat="13.027842">
                <ele>137.130000</ele>
                <time>2016-05-29T01:07:38Z</time>
            </trkpt>
            <trkpt lon="101.060933" lat="13.028007">
                <ele>137.610000</ele>
                <time>2016-05-29T01:07:58Z</time>
            </trkpt>
            <trkpt lon="101.060382" lat="13.028139">
                <ele>136.640000</ele>
                <time>2016-05-29T01:08:11Z</time>
            </trkpt>
            <trkpt lon="101.059546" lat="13.028013">
                <ele>128.950000</ele>
                <time>2016-05-29T01:08:23Z</time>
            </trkpt>
            <trkpt lon="101.056995" lat="13.027162">
                <ele>123.190000</ele>
                <time>2016-05-29T01:08:56Z</time>
            </trkpt>
            <trkpt lon="101.055947" lat="13.027521">
                <ele>118.860000</ele>
                <time>2016-05-29T01:09:15Z</time>
            </trkpt>
            <trkpt lon="101.054542" lat="13.027519">
                <ele>116.940000</ele>
                <time>2016-05-29T01:09:35Z</time>
            </trkpt>
            <trkpt lon="101.053862" lat="13.027070">
                <ele>119.340000</ele>
                <time>2016-05-29T01:09:50Z</time>
            </trkpt>
            <trkpt lon="101.053463" lat="13.026946">
                <ele>119.820000</ele>
                <time>2016-05-29T01:10:00Z</time>
            </trkpt>
            <trkpt lon="101.053748" lat="13.026438">
                <ele>121.260000</ele>
                <time>2016-05-29T01:10:24Z</time>
            </trkpt>
            <trkpt lon="101.054300" lat="13.025836">
                <ele>123.670000</ele>
                <time>2016-05-29T01:10:55Z</time>
            </trkpt>
            <trkpt lon="101.054592" lat="13.025156">
                <ele>125.590000</ele>
                <time>2016-05-29T01:11:30Z</time>
            </trkpt>
            <trkpt lon="101.054902" lat="13.022516">
                <ele>131.360000</ele>
                <time>2016-05-29T01:13:33Z</time>
            </trkpt>
            <trkpt lon="101.054803" lat="13.021404">
                <ele>132.800000</ele>
                <time>2016-05-29T01:14:15Z</time>
            </trkpt>
            <trkpt lon="101.055156" lat="13.021250">
                <ele>132.800000</ele>
                <time>2016-05-29T01:14:30Z</time>
            </trkpt>
            <trkpt lon="101.055170" lat="13.021149">
                <ele>133.280000</ele>
                <time>2016-05-29T01:14:34Z</time>
            </trkpt>
            <trkpt lon="101.054883" lat="13.019996">
                <ele>135.680000</ele>
                <time>2016-05-29T01:15:17Z</time>
            </trkpt>
            <trkpt lon="101.055003" lat="13.019765">
                <ele>136.160000</ele>
                <time>2016-05-29T01:15:26Z</time>
            </trkpt>
            <trkpt lon="101.055393" lat="13.019483">
                <ele>138.090000</ele>
                <time>2016-05-29T01:15:44Z</time>
            </trkpt>
            <trkpt lon="101.055820" lat="13.019232">
                <ele>138.090000</ele>
                <time>2016-05-29T01:16:01Z</time>
            </trkpt>
            <trkpt lon="101.055286" lat="13.017021">
                <ele>149.140000</ele>
                <time>2016-05-29T01:17:46Z</time>
            </trkpt>
            <trkpt lon="101.054528" lat="13.017021">
                <ele>149.620000</ele>
                <time>2016-05-29T01:18:11Z</time>
            </trkpt>
            <trkpt lon="101.053100" lat="13.016492">
                <ele>153.470000</ele>
                <time>2016-05-29T01:19:04Z</time>
            </trkpt>
            <trkpt lon="101.048512" lat="13.014918">
                <ele>151.060000</ele>
                <time>2016-05-29T01:20:39Z</time>
            </trkpt>
            <trkpt lon="101.047731" lat="13.014823">
                <ele>153.470000</ele>
                <time>2016-05-29T01:20:58Z</time>
            </trkpt>
            <trkpt lon="101.046301" lat="13.014809">
                <ele>149.620000</ele>
                <time>2016-05-29T01:21:28Z</time>
            </trkpt>
            <trkpt lon="101.045486" lat="13.014303">
                <ele>149.140000</ele>
                <time>2016-05-29T01:21:44Z</time>
            </trkpt>
            <trkpt lon="101.044451" lat="13.014256">
                <ele>149.140000</ele>
                <time>2016-05-29T01:22:03Z</time>
            </trkpt>
            <trkpt lon="101.043759" lat="13.013918">
                <ele>149.620000</ele>
                <time>2016-05-29T01:22:19Z</time>
            </trkpt>
            <trkpt lon="101.042842" lat="13.017884">
                <ele>133.280000</ele>
                <time>2016-05-29T01:24:07Z</time>
            </trkpt>
            <trkpt lon="101.041969" lat="13.018719">
                <ele>128.470000</ele>
                <time>2016-05-29T01:25:22Z</time>
            </trkpt>
            <trkpt lon="101.041318" lat="13.019067">
                <ele>126.550000</ele>
                <time>2016-05-29T01:26:27Z</time>
            </trkpt>
            <trkpt lon="101.040798" lat="13.019667">
                <ele>126.070000</ele>
                <time>2016-05-29T01:27:18Z</time>
            </trkpt>
            <trkpt lon="101.040177" lat="13.019124">
                <ele>128.950000</ele>
                <time>2016-05-29T01:27:54Z</time>
            </trkpt>
            <trkpt lon="101.039755" lat="13.018768">
                <ele>127.510000</ele>
                <time>2016-05-29T01:28:13Z</time>
            </trkpt>
            <trkpt lon="101.038876" lat="13.018170">
                <ele>123.670000</ele>
                <time>2016-05-29T01:28:40Z</time>
            </trkpt>
            <trkpt lon="101.038919" lat="13.018027">
                <ele>123.190000</ele>
                <time>2016-05-29T01:28:50Z</time>
            </trkpt>
            <trkpt lon="101.037548" lat="13.016532">
                <ele>115.500000</ele>
                <time>2016-05-29T01:30:33Z</time>
            </trkpt>
            <trkpt lon="101.037065" lat="13.016167">
                <ele>112.130000</ele>
                <time>2016-05-29T01:30:59Z</time>
            </trkpt>
            <trkpt lon="101.037198" lat="13.015998">
                <ele>113.090000</ele>
                <time>2016-05-29T01:31:10Z</time>
            </trkpt>
            <trkpt lon="101.037035" lat="13.015641">
                <ele>112.610000</ele>
                <time>2016-05-29T01:31:24Z</time>
            </trkpt>
            <trkpt lon="101.036730" lat="13.015482">
                <ele>112.610000</ele>
                <time>2016-05-29T01:31:37Z</time>
            </trkpt>
            <trkpt lon="101.036593" lat="13.015119">
                <ele>114.050000</ele>
                <time>2016-05-29T01:31:55Z</time>
            </trkpt>
            <trkpt lon="101.036721" lat="13.014488">
                <ele>115.980000</ele>
                <time>2016-05-29T01:32:36Z</time>
            </trkpt>
            <trkpt lon="101.036562" lat="13.014838">
                <ele>114.530000</ele>
                <time>2016-05-29T01:32:53Z</time>
            </trkpt>
            <trkpt lon="101.036211" lat="13.015061">
                <ele>113.090000</ele>
                <time>2016-05-29T01:33:06Z</time>
            </trkpt>
            <trkpt lon="101.036066" lat="13.014590">
                <ele>113.090000</ele>
                <time>2016-05-29T01:33:34Z</time>
            </trkpt>
            <trkpt lon="101.035700" lat="13.014690">
                <ele>111.650000</ele>
                <time>2016-05-29T01:33:59Z</time>
            </trkpt>
            <trkpt lon="101.035684" lat="13.014866">
                <ele>110.690000</ele>
                <time>2016-05-29T01:34:14Z</time>
            </trkpt>
            <trkpt lon="101.035818" lat="13.014690">
                <ele>111.170000</ele>
                <time>2016-05-29T01:34:29Z</time>
            </trkpt>
            <trkpt lon="101.036166" lat="13.014561">
                <ele>113.090000</ele>
                <time>2016-05-29T01:34:48Z</time>
            </trkpt>
            <trkpt lon="101.036624" lat="13.014664">
                <ele>114.050000</ele>
                <time>2016-05-29T01:35:12Z</time>
            </trkpt>
            <trkpt lon="101.036529" lat="13.014953">
                <ele>112.610000</ele>
                <time>2016-05-29T01:35:22Z</time>
            </trkpt>
            <trkpt lon="101.036706" lat="13.015463">
                <ele>109.730000</ele>
                <time>2016-05-29T01:35:33Z</time>
            </trkpt>
            <trkpt lon="101.036953" lat="13.015592">
                <ele>110.210000</ele>
                <time>2016-05-29T01:35:41Z</time>
            </trkpt>
            <trkpt lon="101.037177" lat="13.015980">
                <ele>109.730000</ele>
                <time>2016-05-29T01:35:53Z</time>
            </trkpt>
            <trkpt lon="101.037058" lat="13.016109">
                <ele>109.250000</ele>
                <time>2016-05-29T01:35:59Z</time>
            </trkpt>
            <trkpt lon="101.036725" lat="13.015680">
                <ele>108.770000</ele>
                <time>2016-05-29T01:36:19Z</time>
            </trkpt>
            <trkpt lon="101.036574" lat="13.014842">
                <ele>112.130000</ele>
                <time>2016-05-29T01:36:47Z</time>
            </trkpt>
            <trkpt lon="101.036995" lat="13.013424">
                <ele>116.940000</ele>
                <time>2016-05-29T01:37:38Z</time>
            </trkpt>
            <trkpt lon="101.037011" lat="13.013301">
                <ele>115.980000</ele>
                <time>2016-05-29T01:37:46Z</time>
            </trkpt>
            <trkpt lon="101.037087" lat="13.013207">
                <ele>115.500000</ele>
                <time>2016-05-29T01:37:59Z</time>
            </trkpt>
            <trkpt lon="101.036999" lat="13.013395">
                <ele>115.980000</ele>
                <time>2016-05-29T01:38:12Z</time>
            </trkpt>
            <trkpt lon="101.037255" lat="13.013513">
                <ele>116.940000</ele>
                <time>2016-05-29T01:38:23Z</time>
            </trkpt>
            <trkpt lon="101.038052" lat="13.013389">
                <ele>120.300000</ele>
                <time>2016-05-29T01:38:56Z</time>
            </trkpt>
            <trkpt lon="101.039461" lat="13.012995">
                <ele>125.590000</ele>
                <time>2016-05-29T01:40:00Z</time>
            </trkpt>
            <trkpt lon="101.039414" lat="13.012417">
                <ele>121.740000</ele>
                <time>2016-05-29T01:43:29Z</time>
            </trkpt>
            <trkpt lon="101.039380" lat="13.012961">
                <ele>123.670000</ele>
                <time>2016-05-29T01:44:18Z</time>
            </trkpt>
            <trkpt lon="101.037007" lat="13.013443">
                <ele>114.530000</ele>
                <time>2016-05-29T01:45:02Z</time>
            </trkpt>
            <trkpt lon="101.036539" lat="13.014882">
                <ele>108.770000</ele>
                <time>2016-05-29T01:45:32Z</time>
            </trkpt>
            <trkpt lon="101.036702" lat="13.015457">
                <ele>106.360000</ele>
                <time>2016-05-29T01:45:42Z</time>
            </trkpt>
            <trkpt lon="101.037101" lat="13.015761">
                <ele>106.840000</ele>
                <time>2016-05-29T01:45:52Z</time>
            </trkpt>
            <trkpt lon="101.037135" lat="13.016059">
                <ele>107.320000</ele>
                <time>2016-05-29T01:46:00Z</time>
            </trkpt>
            <trkpt lon="101.037056" lat="13.016193">
                <ele>106.840000</ele>
                <time>2016-05-29T01:46:04Z</time>
            </trkpt>
            <trkpt lon="101.037646" lat="13.016636">
                <ele>110.210000</ele>
                <time>2016-05-29T01:46:31Z</time>
            </trkpt>
            <trkpt lon="101.037853" lat="13.016848">
                <ele>109.250000</ele>
                <time>2016-05-29T01:46:43Z</time>
            </trkpt>
            <trkpt lon="101.038022" lat="13.017283">
                <ele>111.170000</ele>
                <time>2016-05-29T01:47:13Z</time>
            </trkpt>
            <trkpt lon="101.037976" lat="13.017514">
                <ele>111.170000</ele>
                <time>2016-05-29T01:47:20Z</time>
            </trkpt>
            <trkpt lon="101.037043" lat="13.017706">
                <ele>113.570000</ele>
                <time>2016-05-29T01:48:04Z</time>
            </trkpt>
            <trkpt lon="101.036675" lat="13.017696">
                <ele>119.340000</ele>
                <time>2016-05-29T01:48:43Z</time>
            </trkpt>
            <trkpt lon="101.036365" lat="13.017707">
                <ele>121.260000</ele>
                <time>2016-05-29T01:49:04Z</time>
            </trkpt>
            <trkpt lon="101.035949" lat="13.017523">
                <ele>127.510000</ele>
                <time>2016-05-29T01:49:37Z</time>
            </trkpt>
            <trkpt lon="101.035563" lat="13.017202">
                <ele>130.400000</ele>
                <time>2016-05-29T01:50:12Z</time>
            </trkpt>
            <trkpt lon="101.035232" lat="13.017700">
                <ele>127.510000</ele>
                <time>2016-05-29T01:50:46Z</time>
            </trkpt>
            <trkpt lon="101.035392" lat="13.018104">
                <ele>126.550000</ele>
                <time>2016-05-29T01:50:59Z</time>
            </trkpt>
            <trkpt lon="101.036194" lat="13.018833">
                <ele>118.380000</ele>
                <time>2016-05-29T01:51:27Z</time>
            </trkpt>
            <trkpt lon="101.036265" lat="13.019326">
                <ele>116.940000</ele>
                <time>2016-05-29T01:51:39Z</time>
            </trkpt>
            <trkpt lon="101.034924" lat="13.019135">
                <ele>123.190000</ele>
                <time>2016-05-29T01:52:55Z</time>
            </trkpt>
            <trkpt lon="101.034247" lat="13.018843">
                <ele>129.430000</ele>
                <time>2016-05-29T01:53:37Z</time>
            </trkpt>
            <trkpt lon="101.033106" lat="13.018640">
                <ele>136.160000</ele>
                <time>2016-05-29T01:54:41Z</time>
            </trkpt>
            <trkpt lon="101.032590" lat="13.018660">
                <ele>141.930000</ele>
                <time>2016-05-29T01:55:13Z</time>
            </trkpt>
            <trkpt lon="101.029990" lat="13.018517">
                <ele>159.720000</ele>
                <time>2016-05-29T01:57:38Z</time>
            </trkpt>
            <trkpt lon="101.029494" lat="13.018673">
                <ele>166.930000</ele>
                <time>2016-05-29T01:58:16Z</time>
            </trkpt>
            <trkpt lon="101.029412" lat="13.018948">
                <ele>167.890000</ele>
                <time>2016-05-29T01:58:30Z</time>
            </trkpt>
            <trkpt lon="101.029197" lat="13.018975">
                <ele>169.810000</ele>
                <time>2016-05-29T01:58:47Z</time>
            </trkpt>
            <trkpt lon="101.028940" lat="13.018923">
                <ele>171.250000</ele>
                <time>2016-05-29T01:59:03Z</time>
            </trkpt>
            <trkpt lon="101.028835" lat="13.018902">
                <ele>171.250000</ele>
                <time>2016-05-29T01:59:08Z</time>
            </trkpt>
            <trkpt lon="101.028713" lat="13.019546">
                <ele>166.450000</ele>
                <time>2016-05-29T01:59:27Z</time>
            </trkpt>
            <trkpt lon="101.028503" lat="13.019794">
                <ele>165.960000</ele>
                <time>2016-05-29T01:59:41Z</time>
            </trkpt>
            <trkpt lon="101.028078" lat="13.019710">
                <ele>164.040000</ele>
                <time>2016-05-29T01:59:55Z</time>
            </trkpt>
            <trkpt lon="101.027729" lat="13.019823">
                <ele>160.680000</ele>
                <time>2016-05-29T02:00:05Z</time>
            </trkpt>
            <trkpt lon="101.027681" lat="13.020846">
                <ele>146.740000</ele>
                <time>2016-05-29T02:00:48Z</time>
            </trkpt>
            <trkpt lon="101.027876" lat="13.021364">
                <ele>137.610000</ele>
                <time>2016-05-29T02:01:09Z</time>
            </trkpt>
            <trkpt lon="101.027337" lat="13.022831">
                <ele>125.590000</ele>
                <time>2016-05-29T02:02:10Z</time>
            </trkpt>
            <trkpt lon="101.027254" lat="13.022928">
                <ele>124.630000</ele>
                <time>2016-05-29T02:02:17Z</time>
            </trkpt>
            <trkpt lon="101.026763" lat="13.022825">
                <ele>119.820000</ele>
                <time>2016-05-29T02:02:35Z</time>
            </trkpt>
            <trkpt lon="101.026504" lat="13.023087">
                <ele>116.940000</ele>
                <time>2016-05-29T02:02:45Z</time>
            </trkpt>
            <trkpt lon="101.025800" lat="13.023460">
                <ele>113.570000</ele>
                <time>2016-05-29T02:03:07Z</time>
            </trkpt>
            <trkpt lon="101.025636" lat="13.024382">
                <ele>111.170000</ele>
                <time>2016-05-29T02:03:33Z</time>
            </trkpt>
            <trkpt lon="101.025016" lat="13.025525">
                <ele>105.880000</ele>
                <time>2016-05-29T02:03:56Z</time>
            </trkpt>
            <trkpt lon="101.024748" lat="13.025421">
                <ele>105.400000</ele>
                <time>2016-05-29T02:04:03Z</time>
            </trkpt>
            <trkpt lon="101.024276" lat="13.024704">
                <ele>109.250000</ele>
                <time>2016-05-29T02:04:23Z</time>
            </trkpt>
            <trkpt lon="101.024240" lat="13.024697">
                <ele>108.770000</ele>
                <time>2016-05-29T02:04:24Z</time>
            </trkpt>
            <trkpt lon="101.023584" lat="13.025170">
                <ele>103.480000</ele>
                <time>2016-05-29T02:04:38Z</time>
            </trkpt>
            <trkpt lon="101.022941" lat="13.025280">
                <ele>101.560000</ele>
                <time>2016-05-29T02:04:52Z</time>
            </trkpt>
            <trkpt lon="101.022828" lat="13.025747">
                <ele>105.400000</ele>
                <time>2016-05-29T02:05:12Z</time>
            </trkpt>
            <trkpt lon="101.022810" lat="13.026753">
                <ele>100.110000</ele>
                <time>2016-05-29T02:05:38Z</time>
            </trkpt>
            <trkpt lon="101.022513" lat="13.027141">
                <ele>96.270000</ele>
                <time>2016-05-29T02:05:53Z</time>
            </trkpt>
            <trkpt lon="101.022820" lat="13.027734">
                <ele>102.520000</ele>
                <time>2016-05-29T02:06:23Z</time>
            </trkpt>
            <trkpt lon="101.023090" lat="13.027981">
                <ele>103.960000</ele>
                <time>2016-05-29T02:06:38Z</time>
            </trkpt>
            <trkpt lon="101.023434" lat="13.028266">
                <ele>102.040000</ele>
                <time>2016-05-29T02:06:52Z</time>
            </trkpt>
            <trkpt lon="101.023430" lat="13.029060">
                <ele>97.710000</ele>
                <time>2016-05-29T02:07:09Z</time>
            </trkpt>
            <trkpt lon="101.023846" lat="13.029623">
                <ele>98.670000</ele>
                <time>2016-05-29T02:07:31Z</time>
            </trkpt>
            <trkpt lon="101.024032" lat="13.030215">
                <ele>97.710000</ele>
                <time>2016-05-29T02:07:45Z</time>
            </trkpt>
            <trkpt lon="101.023568" lat="13.030595">
                <ele>90.500000</ele>
                <time>2016-05-29T02:08:05Z</time>
            </trkpt>
            <trkpt lon="101.023385" lat="13.031146">
                <ele>88.100000</ele>
                <time>2016-05-29T02:08:18Z</time>
            </trkpt>
            <trkpt lon="101.022661" lat="13.031028">
                <ele>83.290000</ele>
                <time>2016-05-29T02:08:38Z</time>
            </trkpt>
            <trkpt lon="101.022307" lat="13.031154">
                <ele>78.970000</ele>
                <time>2016-05-29T02:08:49Z</time>
            </trkpt>
            <trkpt lon="101.021747" lat="13.031823">
                <ele>75.120000</ele>
                <time>2016-05-29T02:09:08Z</time>
            </trkpt>
            <trkpt lon="101.021482" lat="13.031995">
                <ele>74.160000</ele>
                <time>2016-05-29T02:09:15Z</time>
            </trkpt>
            <trkpt lon="101.021570" lat="13.032988">
                <ele>75.120000</ele>
                <time>2016-05-29T02:09:41Z</time>
            </trkpt>
            <trkpt lon="101.021149" lat="13.034411">
                <ele>73.680000</ele>
                <time>2016-05-29T02:10:20Z</time>
            </trkpt>
            <trkpt lon="101.020944" lat="13.034523">
                <ele>72.720000</ele>
                <time>2016-05-29T02:10:25Z</time>
            </trkpt>
            <trkpt lon="101.020909" lat="13.034708">
                <ele>72.720000</ele>
                <time>2016-05-29T02:10:29Z</time>
            </trkpt>
            <trkpt lon="101.021243" lat="13.035518">
                <ele>72.720000</ele>
                <time>2016-05-29T02:20:22Z</time>
            </trkpt>
            <trkpt lon="101.021568" lat="13.035696">
                <ele>73.200000</ele>
                <time>2016-05-29T02:20:32Z</time>
            </trkpt>
            <trkpt lon="101.022084" lat="13.035714">
                <ele>74.640000</ele>
                <time>2016-05-29T02:20:46Z</time>
            </trkpt>
            <trkpt lon="101.022528" lat="13.035900">
                <ele>75.120000</ele>
                <time>2016-05-29T02:20:58Z</time>
            </trkpt>
            <trkpt lon="101.023030" lat="13.035733">
                <ele>76.080000</ele>
                <time>2016-05-29T02:21:14Z</time>
            </trkpt>
            <trkpt lon="101.023433" lat="13.034930">
                <ele>79.930000</ele>
                <time>2016-05-29T02:21:46Z</time>
            </trkpt>
            <trkpt lon="101.023404" lat="13.033653">
                <ele>81.370000</ele>
                <time>2016-05-29T02:22:25Z</time>
            </trkpt>
            <trkpt lon="101.023704" lat="13.033214">
                <ele>82.810000</ele>
                <time>2016-05-29T02:22:40Z</time>
            </trkpt>
            <trkpt lon="101.024638" lat="13.032790">
                <ele>86.180000</ele>
                <time>2016-05-29T02:23:13Z</time>
            </trkpt>
            <trkpt lon="101.025898" lat="13.032466">
                <ele>89.060000</ele>
                <time>2016-05-29T02:23:53Z</time>
            </trkpt>
            <trkpt lon="101.026614" lat="13.032483">
                <ele>91.460000</ele>
                <time>2016-05-29T02:24:15Z</time>
            </trkpt>
            <trkpt lon="101.027509" lat="13.032641">
                <ele>89.540000</ele>
                <time>2016-05-29T02:24:37Z</time>
            </trkpt>
            <trkpt lon="101.028169" lat="13.032306">
                <ele>87.620000</ele>
                <time>2016-05-29T02:24:52Z</time>
            </trkpt>
            <trkpt lon="101.028251" lat="13.031089">
                <ele>93.390000</ele>
                <time>2016-05-29T02:25:29Z</time>
            </trkpt>
            <trkpt lon="101.028545" lat="13.029804">
                <ele>88.100000</ele>
                <time>2016-05-29T02:25:58Z</time>
            </trkpt>
            <trkpt lon="101.028439" lat="13.028997">
                <ele>85.690000</ele>
                <time>2016-05-29T02:26:13Z</time>
            </trkpt>
            <trkpt lon="101.029120" lat="13.028594">
                <ele>90.020000</ele>
                <time>2016-05-29T02:26:39Z</time>
            </trkpt>
            <trkpt lon="101.029419" lat="13.028089">
                <ele>95.310000</ele>
                <time>2016-05-29T02:27:13Z</time>
            </trkpt>
            <trkpt lon="101.029815" lat="13.027936">
                <ele>96.270000</ele>
                <time>2016-05-29T02:27:30Z</time>
            </trkpt>
            <trkpt lon="101.030087" lat="13.027596">
                <ele>97.230000</ele>
                <time>2016-05-29T02:27:45Z</time>
            </trkpt>
            <trkpt lon="101.030189" lat="13.027198">
                <ele>97.230000</ele>
                <time>2016-05-29T02:27:59Z</time>
            </trkpt>
            <trkpt lon="101.030430" lat="13.027049">
                <ele>95.310000</ele>
                <time>2016-05-29T02:28:07Z</time>
            </trkpt>
            <trkpt lon="101.030437" lat="13.026703">
                <ele>93.390000</ele>
                <time>2016-05-29T02:28:16Z</time>
            </trkpt>
            <trkpt lon="101.030848" lat="13.026535">
                <ele>97.230000</ele>
                <time>2016-05-29T02:28:38Z</time>
            </trkpt>
            <trkpt lon="101.030510" lat="13.025869">
                <ele>98.670000</ele>
                <time>2016-05-29T02:29:20Z</time>
            </trkpt>
            <trkpt lon="101.030464" lat="13.024965">
                <ele>104.440000</ele>
                <time>2016-05-29T02:30:13Z</time>
            </trkpt>
            <trkpt lon="101.031360" lat="13.024848">
                <ele>110.210000</ele>
                <time>2016-05-29T02:31:08Z</time>
            </trkpt>
            <trkpt lon="101.031894" lat="13.025105">
                <ele>115.010000</ele>
                <time>2016-05-29T02:31:43Z</time>
            </trkpt>
            <trkpt lon="101.032122" lat="13.025298">
                <ele>114.530000</ele>
                <time>2016-05-29T02:31:57Z</time>
            </trkpt>
            <trkpt lon="101.032218" lat="13.025596">
                <ele>111.170000</ele>
                <time>2016-05-29T02:32:07Z</time>
            </trkpt>
            <trkpt lon="101.032368" lat="13.027183">
                <ele>103.960000</ele>
                <time>2016-05-29T02:32:45Z</time>
            </trkpt>
            <trkpt lon="101.032873" lat="13.027419">
                <ele>108.770000</ele>
                <time>2016-05-29T02:33:16Z</time>
            </trkpt>
            <trkpt lon="101.033269" lat="13.027414">
                <ele>110.210000</ele>
                <time>2016-05-29T02:33:36Z</time>
            </trkpt>
            <trkpt lon="101.034321" lat="13.026564">
                <ele>109.730000</ele>
                <time>2016-05-29T02:34:19Z</time>
            </trkpt>
            <trkpt lon="101.034642" lat="13.026172">
                <ele>114.050000</ele>
                <time>2016-05-29T02:34:49Z</time>
            </trkpt>
            <trkpt lon="101.035612" lat="13.024718">
                <ele>111.170000</ele>
                <time>2016-05-29T02:35:40Z</time>
            </trkpt>
            <trkpt lon="101.036178" lat="13.024762">
                <ele>112.130000</ele>
                <time>2016-05-29T02:35:58Z</time>
            </trkpt>
            <trkpt lon="101.036473" lat="13.024544">
                <ele>117.420000</ele>
                <time>2016-05-29T02:36:23Z</time>
            </trkpt>
            <trkpt lon="101.036919" lat="13.024353">
                <ele>120.300000</ele>
                <time>2016-05-29T02:36:55Z</time>
            </trkpt>
            <trkpt lon="101.037190" lat="13.024198">
                <ele>119.340000</ele>
                <time>2016-05-29T02:37:07Z</time>
            </trkpt>
            <trkpt lon="101.037492" lat="13.023584">
                <ele>115.010000</ele>
                <time>2016-05-29T02:37:27Z</time>
            </trkpt>
            <trkpt lon="101.037243" lat="13.022543">
                <ele>113.090000</ele>
                <time>2016-05-29T02:38:00Z</time>
            </trkpt>
            <trkpt lon="101.037430" lat="13.023554">
                <ele>114.050000</ele>
                <time>2016-05-29T02:38:42Z</time>
            </trkpt>
            <trkpt lon="101.038294" lat="13.023354">
                <ele>115.010000</ele>
                <time>2016-05-29T02:39:11Z</time>
            </trkpt>
            <trkpt lon="101.038545" lat="13.023167">
                <ele>118.380000</ele>
                <time>2016-05-29T02:39:28Z</time>
            </trkpt>
            <trkpt lon="101.039169" lat="13.022821">
                <ele>120.780000</ele>
                <time>2016-05-29T02:40:00Z</time>
            </trkpt>
            <trkpt lon="101.039434" lat="13.022678">
                <ele>121.740000</ele>
                <time>2016-05-29T02:40:16Z</time>
            </trkpt>
            <trkpt lon="101.040362" lat="13.022312">
                <ele>119.340000</ele>
                <time>2016-05-29T02:40:42Z</time>
            </trkpt>
            <trkpt lon="101.040688" lat="13.022066">
                <ele>116.940000</ele>
                <time>2016-05-29T02:40:53Z</time>
            </trkpt>
            <trkpt lon="101.041664" lat="13.023393">
                <ele>119.820000</ele>
                <time>2016-05-29T02:41:47Z</time>
            </trkpt>
            <trkpt lon="101.041847" lat="13.024096">
                <ele>127.030000</ele>
                <time>2016-05-29T02:42:39Z</time>
            </trkpt>
            <trkpt lon="101.041977" lat="13.024080">
                <ele>127.510000</ele>
                <time>2016-05-29T02:42:46Z</time>
            </trkpt>
            <trkpt lon="101.042642" lat="13.024125">
                <ele>125.590000</ele>
                <time>2016-05-29T02:43:12Z</time>
            </trkpt>
            <trkpt lon="101.043184" lat="13.024221">
                <ele>116.940000</ele>
                <time>2016-05-29T02:43:33Z</time>
            </trkpt>
            <trkpt lon="101.043570" lat="13.024670">
                <ele>115.500000</ele>
                <time>2016-05-29T02:43:52Z</time>
            </trkpt>
            <trkpt lon="101.044926" lat="13.023714">
                <ele>101.080000</ele>
                <time>2016-05-29T02:44:33Z</time>
            </trkpt>
            <trkpt lon="101.045729" lat="13.023839">
                <ele>96.270000</ele>
                <time>2016-05-29T02:44:54Z</time>
            </trkpt>
            <trkpt lon="101.046685" lat="13.023482">
                <ele>95.310000</ele>
                <time>2016-05-29T02:45:16Z</time>
            </trkpt>
            <trkpt lon="101.047163" lat="13.023441">
                <ele>97.230000</ele>
                <time>2016-05-29T02:45:27Z</time>
            </trkpt>
            <trkpt lon="101.047789" lat="13.024169">
                <ele>96.750000</ele>
                <time>2016-05-29T02:45:51Z</time>
            </trkpt>
            <trkpt lon="101.048325" lat="13.025566">
                <ele>95.310000</ele>
                <time>2016-05-29T02:46:21Z</time>
            </trkpt>
            <trkpt lon="101.049356" lat="13.025814">
                <ele>94.830000</ele>
                <time>2016-05-29T02:46:41Z</time>
            </trkpt>
            <trkpt lon="101.049902" lat="13.025707">
                <ele>94.350000</ele>
                <time>2016-05-29T02:46:52Z</time>
            </trkpt>
            <trkpt lon="101.050200" lat="13.026476">
                <ele>91.460000</ele>
                <time>2016-05-29T02:47:09Z</time>
            </trkpt>
            <trkpt lon="101.050549" lat="13.026585">
                <ele>91.460000</ele>
                <time>2016-05-29T02:47:17Z</time>
            </trkpt>
            <trkpt lon="101.050854" lat="13.026343">
                <ele>91.940000</ele>
                <time>2016-05-29T02:47:26Z</time>
            </trkpt>
            <trkpt lon="101.050953" lat="13.026036">
                <ele>92.900000</ele>
                <time>2016-05-29T02:47:34Z</time>
            </trkpt>
            <trkpt lon="101.051704" lat="13.024607">
                <ele>94.830000</ele>
                <time>2016-05-29T02:48:16Z</time>
            </trkpt>
            <trkpt lon="101.052358" lat="13.024309">
                <ele>97.710000</ele>
                <time>2016-05-29T02:48:47Z</time>
            </trkpt>
            <trkpt lon="101.052692" lat="13.024011">
                <ele>99.150000</ele>
                <time>2016-05-29T02:49:07Z</time>
            </trkpt>
            <trkpt lon="101.052973" lat="13.023651">
                <ele>100.110000</ele>
                <time>2016-05-29T02:49:27Z</time>
            </trkpt>
            <trkpt lon="101.052620" lat="13.022703">
                <ele>100.600000</ele>
                <time>2016-05-29T02:50:05Z</time>
            </trkpt>
            <trkpt lon="101.052997" lat="13.021886">
                <ele>103.000000</ele>
                <time>2016-05-29T02:50:59Z</time>
            </trkpt>
            <trkpt lon="101.054766" lat="13.021396">
                <ele>110.210000</ele>
                <time>2016-05-29T02:52:42Z</time>
            </trkpt>
            <trkpt lon="101.054891" lat="13.022157">
                <ele>108.290000</ele>
                <time>2016-05-29T02:53:03Z</time>
            </trkpt>
            <trkpt lon="101.054802" lat="13.023762">
                <ele>103.960000</ele>
                <time>2016-05-29T02:53:34Z</time>
            </trkpt>
            <trkpt lon="101.054544" lat="13.025322">
                <ele>99.150000</ele>
                <time>2016-05-29T02:54:21Z</time>
            </trkpt>
            <trkpt lon="101.054349" lat="13.025770">
                <ele>98.190000</ele>
                <time>2016-05-29T02:54:37Z</time>
            </trkpt>
            <trkpt lon="101.053616" lat="13.026604">
                <ele>95.310000</ele>
                <time>2016-05-29T02:55:07Z</time>
            </trkpt>
            <trkpt lon="101.053477" lat="13.026980">
                <ele>93.870000</ele>
                <time>2016-05-29T02:55:20Z</time>
            </trkpt>
            <trkpt lon="101.054638" lat="13.027573">
                <ele>89.540000</ele>
                <time>2016-05-29T02:55:46Z</time>
            </trkpt>
            <trkpt lon="101.056029" lat="13.027535">
                <ele>91.460000</ele>
                <time>2016-05-29T02:56:12Z</time>
            </trkpt>
            <trkpt lon="101.056969" lat="13.027197">
                <ele>96.270000</ele>
                <time>2016-05-29T02:56:39Z</time>
            </trkpt>
            <trkpt lon="101.057040" lat="13.027195">
                <ele>95.790000</ele>
                <time>2016-05-29T02:56:41Z</time>
            </trkpt>
            <trkpt lon="101.059589" lat="13.028064">
                <ele>101.560000</ele>
                <time>2016-05-29T02:58:12Z</time>
            </trkpt>
            <trkpt lon="101.060495" lat="13.028155">
                <ele>108.290000</ele>
                <time>2016-05-29T02:59:09Z</time>
            </trkpt>
            <trkpt lon="101.061735" lat="13.027880">
                <ele>109.250000</ele>
                <time>2016-05-29T02:59:49Z</time>
            </trkpt>
            <trkpt lon="101.063896" lat="13.027802">
                <ele>110.690000</ele>
                <time>2016-05-29T03:00:52Z</time>
            </trkpt>
            <trkpt lon="101.064099" lat="13.027981">
                <ele>111.650000</ele>
                <time>2016-05-29T03:01:01Z</time>
            </trkpt>
            <trkpt lon="101.065019" lat="13.027908">
                <ele>113.570000</ele>
                <time>2016-05-29T03:01:24Z</time>
            </trkpt>
            <trkpt lon="101.065887" lat="13.027425">
                <ele>115.980000</ele>
                <time>2016-05-29T03:01:54Z</time>
            </trkpt>
            <trkpt lon="101.066493" lat="13.027971">
                <ele>111.650000</ele>
                <time>2016-05-29T03:02:07Z</time>
            </trkpt>
            <trkpt lon="101.066873" lat="13.029047">
                <ele>114.530000</ele>
                <time>2016-05-29T03:02:32Z</time>
            </trkpt>
            <trkpt lon="101.066208" lat="13.029284">
                <ele>114.530000</ele>
                <time>2016-05-29T03:02:52Z</time>
            </trkpt>
            <trkpt lon="101.065986" lat="13.030033">
                <ele>115.980000</ele>
                <time>2016-05-29T03:03:14Z</time>
            </trkpt>
            <trkpt lon="101.066107" lat="13.030445">
                <ele>116.940000</ele>
                <time>2016-05-29T03:03:28Z</time>
            </trkpt>
            <trkpt lon="101.066428" lat="13.030437">
                <ele>116.940000</ele>
                <time>2016-05-29T03:03:50Z</time>
            </trkpt>
            <trkpt lon="101.066532" lat="13.030561">
                <ele>116.940000</ele>
                <time>2016-05-29T03:05:04Z</time>
            </trkpt>
        </trkseg>
    </trk>
</gpx>